Time;durP1;ratioP1;P1;durP2;ratioP2;P2;SDS_P1;SDS_P2;PMS_P1;PMS_P2;Temp;Humidity;BMP_temperature;BMP_pressure;BME280_temperature;BME280_humidity;BME280_pressure;Samples;Min_cycle;Max_cycle;Signal;HPM_P1;HPM_P2
2022/10/17 07:04:12;;;;;;;5.68;3.50;;;;;;;;;;12884438;22;5437309;-83
2022/10/17 07:09:15;;;;;;;4.53;3.53;;;;;;;;;;13079588;22;20042;-85
2022/10/17 07:26:13;;;;;;;9.45;7.15;;;;;;;;;;12805963;23;20123;-84
2022/10/17 07:31:39;;;;;;;6.97;5.70;;;;;;;;;;12906394;23;20023;-84
2022/10/17 07:36:42;;;;;;;9.82;6.88;;;;;;;;;;12890441;23;20016;-83
2022/10/17 07:41:44;;;;;;;8.75;7.30;;;;;;;;;;13044921;22;20011;-83
2022/10/17 07:46:45;;;;;;;10.18;7.78;;;;;;;;;;13077858;22;20019;-85
2022/10/17 07:51:48;;;;;;;11.48;8.48;;;;;;;;;;13078720;22;20046;-85
2022/10/17 07:56:49;;;;;;;8.90;6.35;;;;;;;;;;13078454;22;20038;-84
2022/10/17 08:01:50;;;;;;;10.23;7.07;;;;;;;;;;13080138;22;20003;-83
2022/10/17 08:06:51;;;;;;;9.90;7.60;;;;;;;;;;13080863;22;20295;-84
2022/10/17 08:11:53;;;;;;;11.05;7.93;;;;;;;;;;13081058;22;19997;-84
2022/10/17 08:16:54;;;;;;;9.27;8.02;;;;;;;;;;13071828;22;20008;-83
2022/10/17 08:21:57;;;;;;;9.00;7.15;;;;;;;;;;13068084;22;20061;-83
2022/10/17 08:26:59;;;;;;;9.55;6.97;;;;;;;;;;13056395;22;20007;-83
2022/10/17 08:32:07;;;;;;;9.43;6.50;;;;;;;;;;13051894;22;20000;-83
2022/10/17 08:37:08;;;;;;;9.00;6.32;;;;;;;;;;13049036;22;20007;-84
2022/10/17 08:42:19;;;;;;;7.15;5.20;;;;;;;;;;13048700;22;20054;-82
2022/10/17 08:47:27;;;;;;;9.77;5.85;;;;;;;;;;13051135;22;20007;-83
2022/10/17 08:52:34;;;;;;;8.05;4.95;;;;;;;;;;13049998;22;20006;-81
2022/10/17 08:57:35;;;;;;;7.35;5.53;;;;;;;;;;13057208;22;20053;-85
2022/10/17 09:02:36;;;;;;;10.07;7.22;;;;;;;;;;13053218;22;20011;-84
2022/10/17 09:07:45;;;;;;;9.15;6.55;;;;;;;;;;13052905;22;20015;-85
2022/10/17 09:13:05;;;;;;;10.40;7.30;;;;;;;;;;13052247;22;20009;-84
2022/10/17 09:18:12;;;;;;;8.25;6.22;;;;;;;;;;13049968;22;20007;-82
2022/10/17 09:23:17;;;;;;;10.32;6.45;;;;;;;;;;13050063;22;20414;-84
2022/10/17 09:28:21;;;;;;;9.13;6.07;;;;;;;;;;13052960;22;20014;-84
2022/10/17 09:33:27;;;;;;;7.60;4.50;;;;;;;;;;13047386;22;20010;-83
2022/10/17 09:38:34;;;;;;;11.00;4.30;;;;;;;;;;13047188;22;20007;-84
2022/10/17 09:43:35;;;;;;;6.13;3.83;;;;;;;;;;13046970;22;20011;-84
2022/10/17 09:48:36;;;;;;;8.45;3.90;;;;;;;;;;13041332;22;20261;-83
2022/10/17 09:53:38;;;;;;;4.10;3.70;;;;;;;;;;13042886;22;20010;-83
2022/10/17 09:58:42;;;;;;;5.78;4.85;;;;;;;;;;13045301;22;19999;-83
2022/10/17 10:03:43;;;;;;;8.30;6.30;;;;;;;;;;13044604;22;20011;-83
2022/10/17 10:08:48;;;;;;;6.72;4.68;;;;;;;;;;13075295;22;20006;-83
2022/10/17 10:13:50;;;;;;;8.65;5.00;;;;;;;;;;13042003;22;20007;-84
2022/10/17 10:18:51;;;;;;;5.85;4.20;;;;;;;;;;13042456;22;20003;-83
2022/10/17 10:24:03;;;;;;;7.07;3.85;;;;;;;;;;13043636;22;20007;-84
2022/10/17 10:29:07;;;;;;;5.65;4.20;;;;;;;;;;13044341;22;20041;-83
2022/10/17 10:34:23;;;;;;;10.93;8.25;;;;;;;;;;13075117;22;20055;-84
2022/10/17 10:39:33;;;;;;;4.68;3.85;;;;;;;;;;13043205;22;20003;-83
2022/10/17 10:44:36;;;;;;;6.95;3.60;;;;;;;;;;13046700;22;20066;-85
2022/10/17 10:49:41;;;;;;;5.50;3.70;;;;;;;;;;13077187;22;20006;-84
2022/10/17 10:54:46;;;;;;;4.25;3.60;;;;;;;;;;13051889;22;20075;-84
2022/10/17 11:00:12;;;;;;;14.02;10.40;;;;;;;;;;13049331;22;20003;-84
2022/10/17 11:05:19;;;;;;;8.77;5.57;;;;;;;;;;13051204;22;20011;-84
2022/10/17 11:10:33;;;;;;;6.18;4.20;;;;;;;;;;13048098;22;20134;-83
2022/10/17 11:15:42;;;;;;;7.80;4.20;;;;;;;;;;13073845;22;20003;-84
2022/10/17 11:20:59;;;;;;;5.35;3.03;;;;;;;;;;13048905;22;20054;-84
2022/10/17 11:26:02;;;;;;;7.93;4.68;;;;;;;;;;13046795;22;20010;-82
2022/10/17 11:31:05;;;;;;;5.35;3.83;;;;;;;;;;13047454;22;19999;-84
2022/10/17 11:36:08;;;;;;;6.40;4.22;;;;;;;;;;13060339;22;20003;-82
2022/10/17 11:41:12;;;;;;;6.78;4.57;;;;;;;;;;13063400;22;20448;-80
2022/10/17 11:46:17;;;;;;;4.88;3.75;;;;;;;;;;13063553;22;20018;-81
2022/10/17 11:51:18;;;;;;;5.78;3.90;;;;;;;;;;13042123;22;19995;-80
2022/10/17 11:56:40;;;;;;;6.53;4.00;;;;;;;;;;13040802;22;20014;-81
2022/10/17 12:01:48;;;;;;;6.18;3.90;;;;;;;;;;13044222;22;20089;-84
2022/10/17 12:06:59;;;;;;;7.97;3.90;;;;;;;;;;13044719;22;20014;-81
2022/10/17 12:12:02;;;;;;;6.22;4.50;;;;;;;;;;13038353;22;20089;-82
2022/10/17 12:17:04;;;;;;;6.43;4.00;;;;;;;;;;13039383;22;20014;-81
2022/10/17 12:22:20;;;;;;;7.00;4.38;;;;;;;;;;13039333;22;20331;-81
2022/10/17 12:27:27;;;;;;;8.20;4.00;;;;;;;;;;13039723;22;20067;-81
2022/10/17 12:32:28;;;;;;;5.82;3.78;;;;;;;;;;13038954;22;20442;-81
2022/10/17 12:37:58;;;;;;;5.88;4.07;;;;;;;;;;13043239;22;20003;-80
2022/10/17 12:42:59;;;;;;;6.45;4.13;;;;;;;;;;13039522;22;20004;-81
2022/10/17 12:48:00;;;;;;;5.13;3.90;;;;;;;;;;13036516;22;20046;-82
2022/10/17 12:53:05;;;;;;;5.38;4.03;;;;;;;;;;13066653;22;19999;-81
2022/10/17 12:58:11;;;;;;;5.72;4.20;;;;;;;;;;13038340;22;20327;-80
2022/10/17 13:03:32;;;;;;;4.65;3.60;;;;;;;;;;13064253;22;20008;-80
2022/10/17 13:08:35;;;;;;;5.93;3.63;;;;;;;;;;13036948;22;20092;-80
2022/10/17 13:13:50;;;;;;;5.70;3.60;;;;;;;;;;13038106;22;19999;-80
2022/10/17 13:18:52;;;;;;;7.38;5.10;;;;;;;;;;13066138;22;20328;-82
2022/10/17 13:23:54;;;;;;;6.55;4.50;;;;;;;;;;13036853;22;20027;-80
2022/10/17 13:29:02;;;;;;;6.68;4.90;;;;;;;;;;13036867;22;20073;-80
2022/10/17 13:34:04;;;;;;;6.50;4.70;;;;;;;;;;13036456;22;20007;-80
2022/10/17 13:39:07;;;;;;;6.18;5.50;;;;;;;;;;13064918;22;20098;-81
2022/10/17 13:44:28;;;;;;;5.53;4.50;;;;;;;;;;13038586;22;20010;-82
2022/10/17 13:49:33;;;;;;;6.80;4.95;;;;;;;;;;13037784;22;19999;-82
2022/10/17 13:54:37;;;;;;;10.50;4.97;;;;;;;;;;13037533;22;20065;-82
2022/10/17 13:59:38;;;;;;;7.57;4.53;;;;;;;;;;13038357;22;20070;-82
2022/10/17 14:33:36;;;;;;;8.57;4.97;;;;;;;;;;12955059;23;19996;-86
2022/10/17 14:51:04;;;;;;;6.28;3.92;;;;;;;;;;12837557;23;20001;-85
2022/10/17 14:56:37;;;;;;;6.30;4.50;;;;;;;;;;12644397;23;20041;-82
2022/10/17 15:07:24;;;;;;;7.88;3.95;;;;;;;;;;12938987;22;20012;-83
2022/10/17 15:18:07;;;;;;;6.65;4.35;;;;;;;;;;12961155;23;20405;-81
2022/10/17 15:35:11;;;;;;;7.13;4.07;;;;;;;;;;12942746;22;20450;-82
2022/10/17 15:40:57;;;;;;;5.75;3.60;;;;;;;;;;12880624;22;20013;-82
